Time;durP1;ratioP1;P1;durP2;ratioP2;P2;SDS_P1;SDS_P2;PMS_P1;PMS_P2;Temp;Humidity;BMP_temperature;BMP_pressure;BME280_temperature;BME280_humidity;BME280_pressure;Samples;Min_cycle;Max_cycle;Signal;HPM_P1;HPM_P2
2022/04/27 00:01:39;;;;;;;7.93;5.22;;;9.50;86.50;;;;;;5023729;28;20091;-72
2022/04/27 00:04:05;;;;;;;7.43;5.18;;;9.50;86.60;;;;;;5020297;28;20046;-72
2022/04/27 00:06:30;;;;;;;5.47;4.53;;;9.60;86.70;;;;;;5028501;28;20029;-73
2022/04/27 00:08:56;;;;;;;6.18;4.80;;;9.60;86.70;;;;;;5040160;28;20048;-72
2022/04/27 00:11:21;;;;;;;7.78;4.90;;;9.50;86.70;;;;;;5039986;28;20033;-72
2022/04/27 00:13:47;;;;;;;6.97;4.70;;;9.60;86.70;;;;;;5034211;28;20048;-72
2022/04/27 00:16:12;;;;;;;7.97;5.53;;;9.50;86.70;;;;;;5029052;28;20043;-72
2022/04/27 00:18:38;;;;;;;6.20;4.85;;;9.60;86.80;;;;;;5025199;28;20069;-72
2022/04/27 00:21:04;;;;;;;5.50;4.05;;;9.50;86.80;;;;;;5046704;28;20511;-72
2022/04/27 00:23:32;;;;;;;6.40;4.38;;;9.50;86.90;;;;;;5040573;28;20163;-72
2022/04/27 00:25:57;;;;;;;6.13;5.10;;;9.50;86.80;;;;;;5042672;28;20520;-72
2022/04/27 00:28:23;;;;;;;6.18;4.78;;;9.50;86.80;;;;;;5029060;28;20037;-72
2022/04/27 00:30:48;;;;;;;8.07;4.78;;;9.50;86.90;;;;;;5026977;28;20044;-73
2022/04/27 00:33:15;;;;;;;6.60;5.20;;;9.40;86.90;;;;;;5052319;28;20155;-72
2022/04/27 00:35:41;;;;;;;8.05;4.70;;;9.40;87.00;;;;;;5042185;28;20480;-72
2022/04/27 00:38:06;;;;;;;5.68;4.80;;;9.40;87.00;;;;;;5060731;28;20056;-73
2022/04/27 00:40:57;;;;;;;5.28;4.70;;;9.40;87.10;;;;;;5047517;28;20033;-72
2022/04/27 00:43:39;;;;;;;6.43;4.72;;;9.40;87.20;;;;;;5027715;28;20036;-72
2022/04/27 00:46:05;;;;;;;5.53;4.93;;;9.30;87.30;;;;;;5038347;28;20041;-74
2022/04/27 00:48:31;;;;;;;5.20;4.65;;;9.30;87.10;;;;;;5028286;28;21838;-73
2022/04/27 00:50:58;;;;;;;7.70;5.20;;;9.30;87.20;;;;;;5014572;28;20148;-72
2022/04/27 00:53:23;;;;;;;7.30;5.00;;;9.30;87.30;;;;;;5013209;28;20472;-73
2022/04/27 00:55:49;;;;;;;7.47;5.05;;;9.30;87.30;;;;;;5020855;28;20349;-73
2022/04/27 00:58:14;;;;;;;9.80;5.13;;;9.20;87.30;;;;;;5023145;28;20037;-72
2022/04/27 01:00:40;;;;;;;8.40;4.82;;;9.20;87.30;;;;;;5010386;28;20049;-72
2022/04/27 01:03:06;;;;;;;9.00;5.05;;;9.20;87.40;;;;;;5019323;28;20052;-72
2022/04/27 01:05:31;;;;;;;6.78;5.03;;;9.20;87.30;;;;;;5060239;28;20120;-72
2022/04/27 01:08:00;;;;;;;6.07;4.82;;;9.10;87.30;;;;;;5060811;28;20045;-73
2022/04/27 01:10:27;;;;;;;6.00;5.03;;;9.10;87.30;;;;;;5029016;28;20029;-72
2022/04/27 01:12:53;;;;;;;6.55;5.10;;;9.10;87.20;;;;;;4992484;28;20036;-72
2022/04/27 01:15:32;;;;;;;7.63;5.35;;;9.10;87.20;;;;;;5014291;28;20037;-73
2022/04/27 01:17:58;;;;;;;6.25;4.97;;;9.00;87.20;;;;;;5029545;28;20037;-72
2022/04/27 01:20:23;;;;;;;5.63;4.40;;;9.00;87.10;;;;;;5018280;28;20032;-73
2022/04/27 01:22:49;;;;;;;5.85;4.65;;;9.00;87.10;;;;;;5026358;28;20687;-73
2022/04/27 01:25:14;;;;;;;7.65;5.75;;;9.00;87.10;;;;;;5058073;28;20045;-72
2022/04/27 01:27:43;;;;;;;8.00;5.40;;;8.90;87.10;;;;;;5036834;28;20049;-72
2022/04/27 01:30:10;;;;;;;6.70;5.35;;;8.90;87.20;;;;;;5027203;28;20036;-72
2022/04/27 01:32:36;;;;;;;9.55;5.43;;;8.90;87.20;;;;;;5059498;28;20048;-72
2022/04/27 01:35:02;;;;;;;6.10;5.07;;;8.90;87.40;;;;;;4998765;28;20485;-73
2022/04/27 01:40:11;;;;;;;6.85;5.10;;;8.80;87.30;;;;;;5013263;28;20083;-73
2022/04/27 01:42:37;;;;;;;7.25;4.70;;;8.80;88.10;;;;;;5037196;28;20032;-72
2022/04/27 01:45:03;;;;;;;8.77;5.70;;;8.80;87.40;;;;;;5042400;28;20107;-72
2022/04/27 01:47:29;;;;;;;6.68;4.90;;;8.80;87.40;;;;;;5025364;28;20272;-72
2022/04/27 01:49:54;;;;;;;7.38;5.78;;;8.80;87.50;;;;;;5041911;28;20033;-72
2022/04/27 01:55:04;;;;;;;8.38;4.80;;;8.70;87.50;;;;;;5045951;28;20039;-72
2022/04/27 01:57:30;;;;;;;8.43;5.30;;;8.70;87.50;;;;;;5041541;28;20108;-73
2022/04/27 01:59:56;;;;;;;7.22;4.55;;;8.70;87.60;;;;;;5040176;28;20044;-72
2022/04/27 02:02:22;;;;;;;5.88;4.72;;;8.70;87.60;;;;;;5023988;28;20036;-74
2022/04/27 02:04:47;;;;;;;6.68;5.05;;;8.70;87.60;;;;;;4992600;28;20037;-72
2022/04/27 02:07:13;;;;;;;7.88;5.90;;;8.70;87.60;;;;;;5041476;28;20430;-72
2022/04/27 02:09:38;;;;;;;7.10;5.00;;;8.70;87.60;;;;;;5002047;28;20036;-72
2022/04/27 02:12:05;;;;;;;7.07;5.10;;;8.70;87.70;;;;;;5050467;28;20037;-72
2022/04/27 02:14:30;;;;;;;7.80;5.45;;;8.70;87.60;;;;;;5059004;28;20033;-73
2022/04/27 02:16:57;;;;;;;7.38;4.95;;;8.70;87.60;;;;;;5029506;28;20041;-72
2022/04/27 02:19:23;;;;;;;6.72;5.47;;;8.70;87.60;;;;;;5038021;28;20036;-73
2022/04/27 02:21:48;;;;;;;9.18;5.22;;;8.70;87.70;;;;;;5025682;28;20033;-72
2022/04/27 02:24:14;;;;;;;6.70;5.78;;;8.70;87.70;;;;;;5062209;28;20028;-72
2022/04/27 02:26:42;;;;;;;6.15;4.95;;;8.60;87.80;;;;;;5036997;28;20048;-73
2022/04/27 02:29:08;;;;;;;5.40;4.40;;;8.70;87.80;;;;;;5035864;28;20073;-73
2022/04/27 02:31:34;;;;;;;8.80;5.65;;;8.70;87.90;;;;;;5060344;28;20096;-72
2022/04/27 02:34:00;;;;;;;6.40;4.95;;;8.60;87.80;;;;;;5037261;28;20041;-72
2022/04/27 02:36:25;;;;;;;6.70;4.97;;;8.60;87.80;;;;;;5011876;28;20033;-72
2022/04/27 02:38:51;;;;;;;5.70;4.70;;;8.60;87.80;;;;;;4988136;28;20041;-72
2022/04/27 02:41:16;;;;;;;7.25;5.35;;;8.60;87.80;;;;;;4995634;28;20029;-73
2022/04/27 02:43:42;;;;;;;8.43;5.70;;;8.60;87.80;;;;;;5004916;28;20129;-73
2022/04/27 02:46:07;;;;;;;8.77;5.85;;;8.60;87.60;;;;;;4989949;28;20067;-74
2022/04/27 02:48:33;;;;;;;9.68;6.75;;;8.60;87.60;;;;;;4991178;28;20145;-73
2022/04/27 02:53:42;;;;;;;10.07;5.32;;;8.50;87.60;;;;;;5005507;28;20052;-72
2022/04/27 02:56:08;;;;;;;7.10;5.50;;;8.50;87.60;;;;;;4993465;28;20046;-72
2022/04/27 02:58:34;;;;;;;7.90;5.35;;;8.50;88.40;;;;;;5017285;28;20037;-72
2022/04/27 03:00:59;;;;;;;7.57;5.45;;;8.50;87.50;;;;;;4988919;28;20037;-72
2022/04/27 03:03:25;;;;;;;7.13;5.82;;;8.40;87.40;;;;;;4969172;28;20089;-73
2022/04/27 03:05:50;;;;;;;7.50;5.65;;;8.40;87.30;;;;;;5001049;28;20675;-72
2022/04/27 03:08:16;;;;;;;7.35;5.13;;;8.40;87.30;;;;;;5020507;28;20041;-72
2022/04/27 03:10:41;;;;;;;8.07;5.18;;;8.40;87.40;;;;;;4962426;28;20083;-72
2022/04/27 03:13:07;;;;;;;6.40;5.32;;;8.30;87.30;;;;;;5002971;28;20057;-72
2022/04/27 03:15:33;;;;;;;7.63;6.20;;;8.30;87.30;;;;;;5022132;28;20025;-73
2022/04/27 03:18:17;;;;;;;7.90;5.70;;;8.20;87.10;;;;;;5002680;28;20164;-72
2022/04/27 03:20:42;;;;;;;7.95;4.95;;;8.20;87.10;;;;;;5006897;28;20053;-72
2022/04/27 03:23:08;;;;;;;8.43;5.75;;;8.10;87.20;;;;;;5005729;28;20101;-72
2022/04/27 03:25:34;;;;;;;9.63;6.10;;;8.10;87.20;;;;;;5001903;28;20085;-72
2022/04/27 03:27:59;;;;;;;8.10;5.32;;;8.10;87.20;;;;;;5001593;28;20045;-73
2022/04/27 03:30:26;;;;;;;8.95;5.90;;;8.00;87.20;;;;;;5004398;28;20040;-73
2022/04/27 03:32:53;;;;;;;6.82;5.32;;;8.00;87.20;;;;;;5006325;28;20037;-72
2022/04/27 03:35:19;;;;;;;7.43;5.53;;;7.90;87.10;;;;;;4968185;28;20073;-72
2022/04/27 03:37:45;;;;;;;6.82;5.50;;;7.90;87.10;;;;;;5018564;28;20060;-72
2022/04/27 03:40:11;;;;;;;8.60;5.20;;;7.90;87.10;;;;;;5034528;28;20501;-72
2022/04/27 03:42:37;;;;;;;8.60;5.63;;;7.80;87.10;;;;;;5033506;28;20036;-72
2022/04/27 03:45:03;;;;;;;7.45;5.80;;;7.80;87.00;;;;;;5019341;28;20815;-73
2022/04/27 03:47:29;;;;;;;8.48;6.18;;;7.80;87.00;;;;;;5055730;28;20552;-72
2022/04/27 03:49:58;;;;;;;8.52;5.57;;;7.70;87.00;;;;;;5006567;28;20034;-72
2022/04/27 03:52:23;;;;;;;7.93;6.53;;;7.70;87.00;;;;;;5003092;28;20029;-72
2022/04/27 03:54:49;;;;;;;8.90;6.32;;;7.70;87.10;;;;;;5039070;28;20048;-72
2022/04/27 03:57:15;;;;;;;7.90;5.22;;;7.60;87.00;;;;;;5027844;28;20052;-72
2022/04/27 03:59:40;;;;;;;9.55;6.15;;;7.70;87.10;;;;;;5057806;28;20029;-72
2022/04/27 04:02:06;;;;;;;7.93;6.30;;;7.60;87.00;;;;;;5019034;28;20044;-73
2022/04/27 04:04:32;;;;;;;10.43;7.03;;;7.50;86.90;;;;;;5026524;28;20122;-73
2022/04/27 04:06:58;;;;;;;12.90;7.75;;;7.50;87.00;;;;;;5027484;28;20644;-72
2022/04/27 04:09:24;;;;;;;7.07;5.30;;;7.50;87.00;;;;;;5026116;28;20044;-73
2022/04/27 04:11:49;;;;;;;10.43;6.40;;;7.40;87.00;;;;;;5025821;28;20044;-71
2022/04/27 04:14:15;;;;;;;8.23;5.10;;;7.40;87.10;;;;;;5008238;28;20077;-72
2022/04/27 04:16:40;;;;;;;8.93;6.35;;;7.40;87.20;;;;;;5037561;28;20048;-72
2022/04/27 04:19:06;;;;;;;7.63;5.88;;;7.40;87.30;;;;;;5024351;28;20048;-71
2022/04/27 04:21:31;;;;;;;8.82;5.50;;;7.40;87.30;;;;;;5006482;28;20036;-72
2022/04/27 04:23:57;;;;;;;10.55;6.60;;;7.40;87.30;;;;;;5039309;28;20041;-72
2022/04/27 04:29:07;;;;;;;6.13;4.93;;;7.30;87.30;;;;;;5024207;28;20155;-72
2022/04/27 04:31:32;;;;;;;8.73;5.60;;;7.30;87.30;;;;;;5007751;28;20109;-72
2022/04/27 04:33:58;;;;;;;8.70;6.55;;;7.30;87.30;;;;;;5037777;28;20025;-72
2022/04/27 04:36:23;;;;;;;11.32;7.45;;;7.30;87.20;;;;;;5015615;28;20033;-73
2022/04/27 04:38:49;;;;;;;9.68;6.70;;;7.20;87.10;;;;;;5022391;28;20036;-73
2022/04/27 04:41:14;;;;;;;9.30;6.50;;;7.20;87.30;;;;;;5019335;28;20037;-72
2022/04/27 04:43:40;;;;;;;9.05;6.22;;;7.10;87.30;;;;;;5021869;28;20037;-73
2022/04/27 04:46:05;;;;;;;10.50;6.93;;;7.10;87.50;;;;;;5023529;28;20041;-72
2022/04/27 04:48:31;;;;;;;9.18;6.53;;;7.00;87.40;;;;;;5056329;28;20044;-72
2022/04/27 04:50:56;;;;;;;13.23;8.20;;;7.00;87.60;;;;;;5037763;28;20071;-72
2022/04/27 04:53:22;;;;;;;10.25;6.93;;;7.00;87.80;;;;;;5017684;28;20116;-72
2022/04/27 04:55:47;;;;;;;10.07;6.82;;;7.00;87.70;;;;;;5031942;28;20053;-73
2022/04/27 04:58:13;;;;;;;14.15;8.30;;;7.00;87.80;;;;;;5023437;28;20053;-72
2022/04/27 05:00:39;;;;;;;11.02;7.43;;;7.00;87.90;;;;;;5001794;28;20064;-72
2022/04/27 05:03:05;;;;;;;14.45;8.80;;;7.10;88.00;;;;;;5032944;28;20025;-71
2022/04/27 05:05:30;;;;;;;15.05;8.20;;;7.10;88.10;;;;;;5016135;28;20040;-74
2022/04/27 05:07:56;;;;;;;12.10;7.80;;;7.10;88.10;;;;;;5017356;28;20052;-72
2022/04/27 05:10:22;;;;;;;12.85;7.50;;;7.20;88.10;;;;;;5007659;28;20090;-72
2022/04/27 05:12:47;;;;;;;15.95;8.82;;;7.10;88.10;;;;;;5052253;28;20041;-72
2022/04/27 05:15:13;;;;;;;15.75;9.55;;;7.20;88.30;;;;;;5038695;28;20063;-72
2022/04/27 05:17:39;;;;;;;15.43;7.25;;;7.20;88.40;;;;;;5025929;28;20128;-72
2022/04/27 05:20:07;;;;;;;14.77;8.75;;;7.20;88.40;;;;;;5026335;28;20045;-73
2022/04/27 05:22:38;;;;;;;14.75;7.93;;;7.30;88.40;;;;;;5044424;28;20159;-72
2022/04/27 05:25:07;;;;;;;12.20;7.80;;;7.30;88.60;;;;;;5040553;28;20037;-73
2022/04/27 05:27:33;;;;;;;8.35;6.75;;;7.30;88.50;;;;;;5030897;28;20128;-73
2022/04/27 05:32:43;;;;;;;12.10;7.20;;;7.30;88.60;;;;;;5042005;28;20044;-72
2022/04/27 05:35:08;;;;;;;11.68;7.70;;;7.30;88.50;;;;;;5032927;28;20036;-72
2022/04/27 05:37:34;;;;;;;12.25;8.40;;;7.40;88.70;;;;;;5025993;28;20090;-73
2022/04/27 05:39:59;;;;;;;12.82;8.23;;;7.40;88.70;;;;;;5007742;28;20037;-71
2022/04/27 05:42:25;;;;;;;17.45;9.10;;;7.40;88.80;;;;;;5047657;28;20135;-74
2022/04/27 05:44:50;;;;;;;10.60;7.22;;;7.50;88.90;;;;;;5026841;28;20041;-72
2022/04/27 05:47:16;;;;;;;14.88;9.45;;;7.50;89.00;;;;;;5059306;28;20115;-72
2022/04/27 05:49:41;;;;;;;13.18;9.00;;;7.50;88.90;;;;;;5046482;28;20108;-73
2022/04/27 05:52:07;;;;;;;15.43;9.75;;;7.50;89.00;;;;;;5035024;28;20035;-72
2022/04/27 05:54:32;;;;;;;18.02;11.25;;;7.60;89.00;;;;;;5003872;28;20139;-72
2022/04/27 05:56:58;;;;;;;15.45;10.10;;;7.60;89.00;;;;;;5039699;28;20111;-72
2022/04/27 05:59:24;;;;;;;17.08;11.13;;;7.70;89.20;;;;;;5024890;28;20396;-72
2022/04/27 06:01:49;;;;;;;15.80;10.23;;;7.70;89.20;;;;;;5041705;28;20033;-72
2022/04/27 06:04:15;;;;;;;22.02;11.48;;;7.80;89.20;;;;;;5039067;28;20033;-72
2022/04/27 06:06:41;;;;;;;15.48;9.93;;;7.80;89.10;;;;;;5023248;28;20716;-73
2022/04/27 06:09:06;;;;;;;19.63;10.93;;;7.90;89.20;;;;;;5039574;28;20041;-73
2022/04/27 06:11:32;;;;;;;16.60;10.65;;;7.90;89.10;;;;;;5040600;28;20049;-72
2022/04/27 06:13:57;;;;;;;15.07;10.10;;;8.00;89.20;;;;;;5046734;28;20448;-72
2022/04/27 06:16:24;;;;;;;18.90;11.00;;;8.00;89.20;;;;;;5023143;28;20033;-72
2022/04/27 06:18:50;;;;;;;18.10;10.98;;;8.10;89.30;;;;;;5038264;28;20519;-72
2022/04/27 06:21:17;;;;;;;17.50;10.82;;;8.20;89.30;;;;;;5055795;28;20136;-72
2022/04/27 06:23:43;;;;;;;17.55;10.48;;;8.20;89.30;;;;;;5025857;28;20087;-72
2022/04/27 06:26:08;;;;;;;13.27;9.52;;;8.30;89.30;;;;;;5006255;28;20119;-72
2022/04/27 06:28:34;;;;;;;15.77;10.55;;;8.30;89.20;;;;;;5007660;28;20084;-73
2022/04/27 06:31:00;;;;;;;17.58;11.77;;;8.40;89.20;;;;;;5056110;28;20116;-72
2022/04/27 06:33:25;;;;;;;15.70;10.63;;;8.40;89.20;;;;;;5001549;28;20088;-72
2022/04/27 06:35:51;;;;;;;15.35;10.70;;;8.40;89.20;;;;;;5024127;28;20037;-73
2022/04/27 06:38:17;;;;;;;17.33;10.50;;;8.40;89.00;;;;;;5059791;28;20551;-73
2022/04/27 06:40:42;;;;;;;14.43;10.10;;;8.50;89.10;;;;;;5032929;28;20036;-74
2022/04/27 06:43:08;;;;;;;15.13;10.43;;;8.50;89.00;;;;;;5055309;28;20028;-73
2022/04/27 06:45:36;;;;;;;15.00;10.48;;;8.50;89.70;;;;;;5041728;28;20566;-73
2022/04/27 06:48:02;;;;;;;15.32;10.07;;;8.60;89.00;;;;;;5060333;28;20114;-73
2022/04/27 06:50:28;;;;;;;14.40;8.70;;;8.60;89.00;;;;;;5035715;28;20051;-72
2022/04/27 06:52:54;;;;;;;20.10;9.88;;;8.60;89.10;;;;;;5030507;28;20037;-74
2022/04/27 06:55:20;;;;;;;13.05;9.43;;;8.70;89.10;;;;;;5038429;28;20072;-73
2022/04/27 06:57:45;;;;;;;14.57;9.20;;;8.70;89.00;;;;;;5026970;28;20142;-73
2022/04/27 07:00:12;;;;;;;14.70;9.65;;;8.80;88.90;;;;;;5029726;28;20032;-75
2022/04/27 07:02:40;;;;;;;15.00;9.57;;;8.90;88.90;;;;;;5059494;28;20509;-73
2022/04/27 07:05:09;;;;;;;16.52;10.00;;;9.00;88.80;;;;;;5030108;28;20040;-73
2022/04/27 07:07:35;;;;;;;15.73;9.90;;;9.10;88.80;;;;;;5006305;28;20216;-73
2022/04/27 07:10:00;;;;;;;13.23;9.18;;;9.10;88.60;;;;;;5037299;28;20601;-75
2022/04/27 07:12:26;;;;;;;14.15;9.38;;;9.20;88.60;;;;;;5020123;28;21419;-73
2022/04/27 07:14:52;;;;;;;13.73;9.35;;;9.20;88.60;;;;;;5028385;28;20069;-75
2022/04/27 07:17:17;;;;;;;11.75;8.48;;;9.30;88.60;;;;;;5016410;28;20029;-74
2022/04/27 07:19:43;;;;;;;14.32;10.23;;;9.40;88.60;;;;;;5031611;28;20061;-75
2022/04/27 07:22:10;;;;;;;13.80;9.10;;;9.50;88.40;;;;;;5019930;28;20033;-75
2022/04/27 07:24:36;;;;;;;13.50;8.57;;;9.60;88.20;;;;;;5032542;28;20029;-73
2022/04/27 07:27:05;;;;;;;11.25;8.32;;;9.60;88.10;;;;;;5036481;28;20029;-74
2022/04/27 07:29:30;;;;;;;14.45;9.88;;;9.80;88.10;;;;;;5043377;28;20033;-73
2022/04/27 07:31:56;;;;;;;15.45;9.45;;;9.80;88.00;;;;;;5018140;28;20041;-73
2022/04/27 07:34:21;;;;;;;14.35;9.68;;;9.90;87.90;;;;;;5033542;28;20171;-73
2022/04/27 07:36:47;;;;;;;14.90;8.77;;;10.00;87.80;;;;;;5004175;28;20705;-73
2022/04/27 07:39:13;;;;;;;11.48;9.10;;;10.10;87.70;;;;;;5052767;28;20065;-73
2022/04/27 07:41:38;;;;;;;14.80;9.80;;;10.20;87.70;;;;;;5009464;28;20028;-74
2022/04/27 07:44:06;;;;;;;13.40;8.38;;;10.30;87.50;;;;;;5018330;28;20048;-74
2022/04/27 07:46:32;;;;;;;12.68;8.73;;;10.40;87.50;;;;;;5046905;28;20037;-73
2022/04/27 07:48:57;;;;;;;17.20;9.95;;;10.50;87.30;;;;;;5036706;28;20102;-75
2022/04/27 07:51:23;;;;;;;15.70;8.95;;;10.70;87.30;;;;;;5042684;28;20032;-74
2022/04/27 07:53:49;;;;;;;13.07;9.13;;;10.90;87.20;;;;;;5017559;28;20040;-72
2022/04/27 07:56:14;;;;;;;14.45;8.68;;;11.00;87.10;;;;;;4993434;28;20036;-71
2022/04/27 07:58:40;;;;;;;12.00;8.65;;;11.20;86.90;;;;;;5019598;28;20033;-72
2022/04/27 08:01:05;;;;;;;12.82;8.30;;;11.40;86.80;;;;;;5040033;28;20775;-72
2022/04/27 08:03:31;;;;;;;23.38;9.02;;;11.60;86.50;;;;;;5025796;28;20562;-72
2022/04/27 08:05:56;;;;;;;13.00;8.50;;;11.80;86.20;;;;;;5041476;28;20467;-71
2022/04/27 08:08:22;;;;;;;13.07;8.93;;;11.90;85.90;;;;;;5038603;28;20152;-73
2022/04/27 08:10:47;;;;;;;16.55;9.38;;;12.10;85.70;;;;;;5017344;28;20060;-72
2022/04/27 08:13:15;;;;;;;15.35;9.73;;;12.30;85.40;;;;;;5020995;28;20086;-72
2022/04/27 08:15:40;;;;;;;11.00;7.70;;;12.40;85.10;;;;;;5026144;28;20025;-72
2022/04/27 08:18:07;;;;;;;14.38;8.30;;;12.50;84.80;;;;;;5046483;28;20028;-71
2022/04/27 08:23:21;;;;;;;10.48;7.53;;;12.80;84.30;;;;;;5052079;28;20032;-73
2022/04/27 08:25:47;;;;;;;11.85;8.07;;;13.00;84.00;;;;;;5030741;28;20043;-73
2022/04/27 08:28:13;;;;;;;14.32;8.73;;;13.20;83.60;;;;;;5038037;28;20045;-71
2022/04/27 08:30:40;;;;;;;14.93;8.00;;;13.40;83.30;;;;;;5030826;28;20045;-72
2022/04/27 08:33:06;;;;;;;9.23;7.20;;;13.50;82.90;;;;;;5013916;28;20115;-72
2022/04/27 08:35:32;;;;;;;17.63;9.65;;;13.60;82.60;;;;;;5038731;28;23102;-72
2022/04/27 08:38:01;;;;;;;10.07;7.70;;;13.80;82.50;;;;;;4987401;28;20026;-72
2022/04/27 08:40:27;;;;;;;12.80;7.82;;;13.90;82.00;;;;;;5039426;28;20052;-72
2022/04/27 08:42:53;;;;;;;11.85;8.68;;;14.10;81.80;;;;;;5018396;28;20029;-72
2022/04/27 08:45:19;;;;;;;9.07;6.57;;;14.30;81.20;;;;;;5037054;28;20032;-73
2022/04/27 08:47:45;;;;;;;8.05;6.70;;;14.40;80.80;;;;;;5009547;28;20048;-72
2022/04/27 08:50:12;;;;;;;10.00;6.63;;;14.60;80.70;;;;;;5027543;28;20124;-73
2022/04/27 08:52:37;;;;;;;9.80;6.93;;;14.70;80.60;;;;;;5020048;28;20026;-73
2022/04/27 08:55:03;;;;;;;8.82;6.70;;;14.90;80.20;;;;;;5009721;28;20095;-73
2022/04/27 08:57:29;;;;;;;7.97;5.47;;;15.10;79.50;;;;;;5023626;28;20029;-74
2022/04/27 08:59:56;;;;;;;6.30;5.00;;;15.20;79.00;;;;;;5057886;28;20047;-74
2022/04/27 09:02:28;;;;;;;8.98;7.38;;;15.40;78.80;;;;;;5030050;28;20107;-75
2022/04/27 09:05:09;;;;;;;8.23;6.75;;;15.60;77.80;;;;;;5019396;28;20624;-74
2022/04/27 09:07:36;;;;;;;;;;;15.80;76.70;;;;;;5024017;28;20053;-73
2022/04/27 09:10:02;;;;;;;6.93;5.28;;;16.00;77.50;;;;;;5028017;28;19959;-73
2022/04/27 09:12:27;;;;;;;6.50;5.80;;;16.10;77.30;;;;;;5032590;28;20089;-75
2022/04/27 09:14:53;;;;;;;8.05;6.20;;;16.30;76.90;;;;;;4999948;28;20055;-74
2022/04/27 09:22:58;;;;;;;7.25;6.05;;;16.90;74.30;;;;;;5040671;28;20563;-74
2022/04/27 09:25:51;;;;;;;7.85;5.43;;;17.00;74.30;;;;;;5039288;28;20037;-73
2022/04/27 09:28:17;;;;;;;5.38;4.30;;;17.20;74.40;;;;;;5018963;28;20040;-73
2022/04/27 09:30:47;;;;;;;6.18;4.65;;;17.40;73.90;;;;;;5025604;28;20456;-73
2022/04/27 09:33:13;;;;;;;7.22;5.90;;;17.60;73.50;;;;;;5050761;28;20116;-74
2022/04/27 09:35:38;;;;;;;6.07;5.03;;;17.80;72.90;;;;;;5026841;28;20461;-75
2022/04/27 09:38:14;;;;;;;7.95;6.05;;;18.00;72.50;;;;;;5040824;28;20036;-75
2022/04/27 09:40:47;;;;;;;7.65;5.60;;;18.20;71.00;;;;;;5033917;28;20126;-75
2022/04/27 09:43:14;;;;;;;6.32;5.15;;;18.30;70.40;;;;;;5010320;28;20031;-73
2022/04/27 09:45:41;;;;;;;6.13;5.25;;;18.40;70.70;;;;;;5032251;28;20028;-74
2022/04/27 09:48:08;;;;;;;7.68;6.20;;;18.60;70.30;;;;;;5035971;28;20041;-74
2022/04/27 09:50:50;;;;;;;5.75;5.05;;;18.80;69.80;;;;;;5044342;28;20044;-74
2022/04/27 09:53:17;;;;;;;8.02;4.38;;;18.90;68.50;;;;;;5041412;28;20041;-74
2022/04/27 09:55:54;;;;;;;5.82;3.92;;;19.10;68.80;;;;;;5017653;28;20791;-75
2022/04/27 09:58:20;;;;;;;5.63;4.55;;;19.30;67.90;;;;;;5046848;28;20087;-74
2022/04/27 10:00:47;;;;;;;4.72;4.05;;;19.40;68.10;;;;;;5041125;28;20029;-74
2022/04/27 10:03:14;;;;;;;5.35;4.53;;;19.60;67.30;;;;;;5037365;28;20033;-74
2022/04/27 10:05:40;;;;;;;6.93;4.95;;;19.70;67.10;;;;;;5008732;28;20037;-75
2022/04/27 10:08:05;;;;;;;4.97;3.42;;;19.90;66.30;;;;;;5043091;28;20052;-74
2022/04/27 10:10:31;;;;;;;5.57;4.65;;;20.00;65.80;;;;;;5017525;28;20892;-75
2022/04/27 10:12:57;;;;;;;5.05;4.22;;;20.20;65.20;;;;;;5042064;28;20037;-75
2022/04/27 10:15:23;;;;;;;6.28;3.83;;;20.30;64.50;;;;;;5011853;28;20029;-74
2022/04/27 10:17:48;;;;;;;4.00;3.60;;;20.40;63.90;;;;;;4997227;28;20087;-75
2022/04/27 10:20:43;;;;;;;5.72;4.28;;;20.70;63.70;;;;;;5026784;28;20029;-74
2022/04/27 10:23:24;;;;;;;4.18;3.47;;;20.90;61.40;;;;;;5005918;28;20393;-74
2022/04/27 10:26:20;;;;;;;3.33;3.00;;;21.00;60.60;;;;;;5032316;28;20494;-74
2022/04/27 10:28:50;;;;;;;4.90;3.33;;;21.20;60.80;;;;;;5016530;28;20045;-74
2022/04/27 10:31:40;;;;;;;4.00;3.22;;;21.50;61.30;;;;;;5058148;28;20045;-75
2022/04/27 10:34:21;;;;;;;4.27;3.17;;;21.70;59.50;;;;;;5042673;28;20067;-74
2022/04/27 10:36:47;;;;;;;4.70;3.30;;;21.90;59.00;;;;;;5047729;28;20460;-74
2022/04/27 10:39:14;;;;;;;3.22;2.65;;;22.10;59.60;;;;;;5036888;28;20329;-74
2022/04/27 10:41:41;;;;;;;4.43;3.35;;;22.20;58.80;;;;;;5042353;28;20115;-74
2022/04/27 10:44:07;;;;;;;6.80;3.50;;;22.30;58.20;;;;;;5032714;28;20036;-75
2022/04/27 10:46:36;;;;;;;4.40;2.80;;;22.40;57.90;;;;;;5043417;28;20051;-74
2022/04/27 10:49:19;;;;;;;4.15;3.30;;;22.50;57.50;;;;;;5046444;28;20131;-74
2022/04/27 10:52:03;;;;;;;3.58;3.20;;;22.70;57.10;;;;;;5036835;28;20053;-74
2022/04/27 10:54:34;;;;;;;3.58;2.90;;;23.00;55.10;;;;;;5038591;28;20037;-74
2022/04/27 10:57:14;;;;;;;3.90;2.92;;;23.00;56.30;;;;;;5002821;28;20063;-74
2022/04/27 10:59:50;;;;;;;3.45;2.85;;;23.10;54.20;;;;;;5046959;28;20502;-75
2022/04/27 11:02:30;;;;;;;4.47;3.13;;;23.10;55.20;;;;;;5010413;28;20066;-74
2022/04/27 11:04:56;;;;;;;5.05;2.67;;;23.30;53.60;;;;;;5020728;28;20036;-74
2022/04/27 11:07:52;;;;;;;2.83;2.63;;;23.40;54.70;;;;;;5036857;28;20052;-76
2022/04/27 11:10:20;;;;;;;2.58;2.25;;;23.50;53.50;;;;;;5042310;28;20116;-76
2022/04/27 11:12:52;;;;;;;4.25;2.78;;;23.80;54.10;;;;;;5034532;28;20844;-76
2022/04/27 11:15:21;;;;;;;2.97;2.67;;;23.90;53.30;;;;;;5041656;28;20029;-74
2022/04/27 11:17:52;;;;;;;6.88;3.05;;;24.20;53.00;;;;;;5006541;28;20094;-75
2022/04/27 11:20:31;;;;;;;2.67;2.15;;;24.40;52.10;;;;;;5003707;28;20061;-75
2022/04/27 11:22:56;;;;;;;5.55;3.13;;;24.50;51.00;;;;;;5028272;28;20040;-74
2022/04/27 11:25:36;;;;;;;3.13;1.90;;;24.70;51.60;;;;;;5024927;28;20035;-75
2022/04/27 11:28:02;;;;;;;2.80;2.10;;;24.80;50.50;;;;;;5026402;28;20045;-76
2022/04/27 11:30:29;;;;;;;2.55;2.35;;;24.90;50.70;;;;;;5005215;28;20040;-74
2022/04/27 11:32:54;;;;;;;4.03;2.72;;;25.00;50.30;;;;;;5062361;28;20126;-74
2022/04/27 11:35:23;;;;;;;3.78;2.40;;;25.10;49.80;;;;;;5004249;28;20637;-75
2022/04/27 11:37:52;;;;;;;2.65;2.40;;;25.20;49.30;;;;;;5034050;28;20037;-75
2022/04/27 11:40:18;;;;;;;2.20;2.03;;;25.40;49.00;;;;;;5043896;28;20105;-75
2022/04/27 11:42:47;;;;;;;2.45;2.25;;;25.50;48.80;;;;;;5060332;28;20036;-76
2022/04/27 11:45:17;;;;;;;3.10;2.60;;;25.60;48.00;;;;;;5039893;28;20029;-75
2022/04/27 11:47:42;;;;;;;2.40;1.98;;;25.70;47.60;;;;;;5005884;28;20037;-74
2022/04/27 11:50:08;;;;;;;2.67;2.40;;;25.70;47.80;;;;;;5046997;28;20039;-74
2022/04/27 11:52:37;;;;;;;4.63;2.63;;;25.70;47.50;;;;;;5032157;28;20108;-75
2022/04/27 11:55:10;;;;;;;2.83;2.50;;;25.80;47.10;;;;;;5021257;28;20316;-75
2022/04/27 11:57:36;;;;;;;3.70;2.30;;;25.80;45.80;;;;;;5025995;28;20051;-75
2022/04/27 12:00:03;;;;;;;2.53;2.33;;;25.90;46.20;;;;;;5026954;28;20029;-75
2022/04/27 12:02:28;;;;;;;3.40;2.33;;;25.80;46.30;;;;;;5011723;28;20033;-76
2022/04/27 12:04:57;;;;;;;3.22;2.38;;;25.70;45.70;;;;;;5027093;28;20056;-74
2022/04/27 12:07:23;;;;;;;3.00;2.70;;;25.90;45.40;;;;;;5004058;28;20873;-75
2022/04/27 12:10:16;;;;;;;3.35;2.60;;;25.90;45.00;;;;;;4991717;28;20048;-75
2022/04/27 12:12:41;;;;;;;2.15;1.95;;;25.90;43.40;;;;;;5024658;28;20041;-75
2022/04/27 12:15:11;;;;;;;2.90;2.05;;;25.90;44.40;;;;;;5020976;28;20051;-75
2022/04/27 12:17:47;;;;;;;2.67;2.05;;;26.00;44.20;;;;;;5034319;28;20108;-75
2022/04/27 12:20:42;;;;;;;2.28;2.00;;;26.20;43.40;;;;;;5006098;28;20517;-76
2022/04/27 12:23:11;;;;;;;2.50;1.80;;;26.40;41.00;;;;;;4997125;28;20041;-75
2022/04/27 12:26:07;;;;;;;2.00;1.80;;;26.30;42.80;;;;;;5037043;28;20509;-76
2022/04/27 12:28:40;;;;;;;2.05;1.85;;;26.30;41.80;;;;;;4995032;28;20095;-75
2022/04/27 12:31:07;;;;;;;2.45;1.55;;;26.20;42.70;;;;;;5037228;28;20132;-74
2022/04/27 12:33:34;;;;;;;1.63;1.40;;;26.10;42.20;;;;;;5041810;28;20037;-74
2022/04/27 12:39:06;;;;;;;1.80;1.13;;;25.90;41.70;;;;;;5057313;28;20044;-74
2022/04/27 12:41:34;;;;;;;2.03;1.55;;;25.70;40.80;;;;;;5060819;28;20114;-76
2022/04/27 12:44:12;;;;;;;2.53;1.60;;;25.50;42.00;;;;;;5036257;28;20187;-75
2022/04/27 12:46:54;;;;;;;1.77;1.67;;;25.40;41.20;;;;;;5023364;28;20091;-75
2022/04/27 12:49:24;;;;;;;1.95;1.67;;;25.40;40.20;;;;;;5052556;28;20041;-74
2022/04/27 12:51:50;;;;;;;1.33;1.20;;;25.30;41.20;;;;;;5046114;28;20033;-75
2022/04/27 12:54:15;;;;;;;1.70;1.60;;;25.30;41.40;;;;;;5060679;28;20041;-74
2022/04/27 12:56:42;;;;;;;1.85;1.63;;;25.20;41.10;;;;;;5037263;28;20406;-75
2022/04/27 12:59:10;;;;;;;2.28;1.55;;;25.10;40.80;;;;;;5056684;28;20036;-76
2022/04/27 13:01:36;;;;;;;2.50;2.00;;;25.20;41.00;;;;;;5060003;28;20382;-74
2022/04/27 13:04:02;;;;;;;1.83;1.70;;;25.40;41.10;;;;;;5025589;28;20039;-74
2022/04/27 13:06:30;;;;;;;1.88;1.67;;;25.60;41.10;;;;;;5014560;28;20086;-74
2022/04/27 13:11:56;;;;;;;3.70;1.70;;;25.80;40.60;;;;;;5018801;28;20523;-75
2022/04/27 13:14:25;;;;;;;2.00;1.80;;;25.80;40.20;;;;;;5025536;28;20033;-75
2022/04/27 13:16:52;;;;;;;2.00;1.80;;;25.90;40.00;;;;;;5051147;28;20039;-76
2022/04/27 13:19:17;;;;;;;1.95;1.60;;;26.00;39.80;;;;;;5051196;28;20087;-74